createdAt,value
2022-08-22T00:01:42.615Z,97478.00
2022-08-22T00:03:01.342Z,97485.00
2022-08-22T00:03:09.869Z,97502.00
2022-08-22T00:04:39.652Z,97478.00
2022-08-22T00:07:35.502Z,97485.00
2022-08-22T00:10:28.245Z,97474.00
2022-08-22T00:13:14.982Z,97478.00
2022-08-22T00:15:49.776Z,97479.00
2022-08-22T00:18:28.873Z,97483.00
2022-08-22T00:21:22.074Z,97484.00
2022-08-22T00:24:25.904Z,97483.00
2022-08-22T00:27:08.202Z,97479.00
2022-08-22T00:29:49.357Z,97489.00
2022-08-22T00:32:24.279Z,97492.00
2022-08-22T00:35:11.807Z,97494.00
2022-08-22T00:38:00.120Z,97494.00
2022-08-22T00:40:48.263Z,97493.00
2022-08-22T00:43:52.694Z,97495.00
2022-08-22T00:46:56.694Z,97487.00
2022-08-22T00:50:30.159Z,97487.00
2022-08-22T00:53:31.050Z,97493.00
2022-08-22T00:56:33.655Z,97498.00
2022-08-22T00:59:32.372Z,97487.00
2022-08-22T01:02:41.000Z,97495.00
2022-08-22T01:05:38.411Z,97493.00
2022-08-22T01:08:42.835Z,97490.00
2022-08-22T01:11:31.823Z,97490.00
2022-08-22T01:14:19.998Z,97491.00
2022-08-22T01:17:22.941Z,97491.00
2022-08-22T01:20:20.913Z,97494.00
2022-08-22T01:23:08.792Z,97483.00
2022-08-22T01:26:19.064Z,97490.00
2022-08-22T01:29:28.286Z,97489.00
2022-08-22T01:32:42.312Z,97495.00
2022-08-22T01:35:41.990Z,97499.00
2022-08-22T01:38:13.019Z,97493.00
2022-08-22T01:41:30.243Z,97486.00
2022-08-22T01:44:40.755Z,97494.00
2022-08-22T01:47:19.874Z,97501.00
2022-08-22T01:50:00.532Z,97495.00
2022-08-22T01:53:02.512Z,97496.00
2022-08-22T01:55:58.295Z,97500.00
2022-08-22T01:58:31.409Z,97501.00
2022-08-22T02:01:20.650Z,97510.00
2022-08-22T02:04:08.949Z,97501.00
2022-08-22T02:07:11.376Z,97494.00
2022-08-22T02:10:02.778Z,97496.00
2022-08-22T02:12:41.996Z,97491.00
2022-08-22T02:15:14.966Z,97497.00
2022-08-22T02:18:05.834Z,97499.00
2022-08-22T02:21:06.158Z,97488.00
2022-08-22T02:24:19.602Z,97501.00
2022-08-22T02:27:04.413Z,97498.00
2022-08-22T02:30:16.265Z,97495.00
2022-08-22T02:32:46.319Z,97497.00
2022-08-22T02:35:14.370Z,97500.00
2022-08-22T02:38:13.491Z,97497.00
2022-08-22T02:41:29.407Z,97494.00
2022-08-22T02:44:36.905Z,97502.00
2022-08-22T02:47:36.148Z,97509.00
2022-08-22T02:50:53.546Z,97502.00
2022-08-22T02:53:32.127Z,97504.00
2022-08-22T02:56:22.428Z,97503.00
2022-08-22T02:59:18.729Z,97498.00
2022-08-22T03:01:47.758Z,97496.00
2022-08-22T03:04:33.552Z,97504.00
2022-08-22T03:07:21.733Z,97509.00
2022-08-22T03:10:13.509Z,97501.00
2022-08-22T03:12:40.673Z,97491.00
2022-08-22T03:15:39.574Z,97494.00
2022-08-22T03:18:58.983Z,97496.00
2022-08-22T03:21:32.124Z,97489.00
2022-08-22T03:24:13.228Z,97495.00
2022-08-22T03:27:09.481Z,97497.00
2022-08-22T03:29:44.264Z,97491.00
2022-08-22T03:32:19.726Z,97482.00
2022-08-22T03:35:08.948Z,97488.00
2022-08-22T03:37:40.729Z,97489.00
2022-08-22T03:40:22.088Z,97495.00
2022-08-22T03:43:40.070Z,97494.00
2022-08-22T03:47:01.980Z,97482.00
2022-08-22T03:50:04.412Z,97481.00
2022-08-22T03:53:00.175Z,97495.00
2022-08-22T03:56:23.833Z,97504.00
2022-08-22T03:59:44.934Z,97514.00
2022-08-22T04:02:42.915Z,97504.00
2022-08-22T04:05:33.970Z,97509.00
2022-08-22T04:08:55.967Z,97511.00
2022-08-22T04:12:04.619Z,97516.00
2022-08-22T04:15:08.915Z,97510.00
2022-08-22T04:18:01.343Z,97518.00
2022-08-22T04:20:56.846Z,97500.00
2022-08-22T04:23:49.377Z,97515.00
2022-08-22T04:26:50.680Z,97519.00
2022-08-22T04:29:33.661Z,97510.00
2022-08-22T04:32:10.658Z,97512.00
2022-08-22T04:35:10.120Z,97511.00
2022-08-22T04:37:56.509Z,97520.00
2022-08-22T04:40:39.828Z,97522.00
2022-08-22T04:43:20.591Z,97513.00
2022-08-22T04:46:08.322Z,97513.00
2022-08-22T04:48:48.242Z,97520.00
2022-08-22T04:51:40.686Z,97512.00
2022-08-22T04:54:41.545Z,97518.00
2022-08-22T04:57:15.244Z,97525.00
2022-08-22T04:59:43.480Z,97528.00
2022-08-22T05:02:14.891Z,97537.00
2022-08-22T05:04:52.565Z,97536.00
2022-08-22T05:07:29.451Z,97530.00
2022-08-22T05:10:13.792Z,97541.00
2022-08-22T05:12:54.230Z,97546.00
2022-08-22T05:15:35.662Z,97544.00
2022-08-22T05:18:14.082Z,97546.00
2022-08-22T05:20:46.339Z,97546.00
2022-08-22T05:23:30.500Z,97537.00
2022-08-22T05:26:02.477Z,97542.00
2022-08-22T05:28:43.805Z,97544.00
2022-08-22T05:31:31.137Z,97550.00
2022-08-22T05:34:17.686Z,97542.00
2022-08-22T05:36:51.929Z,97549.00
2022-08-22T05:39:25.370Z,97551.00
2022-08-22T05:41:58.285Z,97550.00
2022-08-22T05:44:34.695Z,97544.00
2022-08-22T05:47:32.473Z,97549.00
2022-08-22T05:50:21.581Z,97559.00
2022-08-22T05:53:03.367Z,97555.00
2022-08-22T05:55:46.592Z,97558.00
2022-08-22T05:58:44.895Z,97555.00
2022-08-22T06:01:38.962Z,97552.00
2022-08-22T06:04:46.437Z,97546.00
2022-08-22T06:07:46.815Z,97551.00
2022-08-22T06:10:48.505Z,97552.00
2022-08-22T06:13:42.930Z,97564.00
2022-08-22T06:17:05.412Z,97560.00
2022-08-22T06:19:44.363Z,97570.00
2022-08-22T06:22:26.383Z,97573.00
2022-08-22T06:25:07.527Z,97579.00
2022-08-22T06:27:36.323Z,97578.00
2022-08-22T06:30:07.102Z,97570.00
2022-08-22T06:32:59.183Z,97560.00
2022-08-22T06:36:05.345Z,97564.00
2022-08-22T06:38:56.376Z,97570.00
2022-08-22T06:41:29.778Z,97566.00
2022-08-22T06:43:58.698Z,97571.00
2022-08-22T06:46:29.612Z,97568.00
2022-08-22T06:49:00.376Z,97574.00
2022-08-22T06:51:29.665Z,97562.00
2022-08-22T06:54:02.389Z,97567.00
2022-08-22T06:56:41.333Z,97564.00
2022-08-22T06:59:20.046Z,97572.00
2022-08-22T07:02:04.616Z,97566.00
2022-08-22T07:04:32.443Z,97577.00
2022-08-22T07:07:01.641Z,97567.00
2022-08-22T07:09:37.260Z,97571.00
2022-08-22T07:12:31.645Z,97574.00
2022-08-22T07:15:34.460Z,97575.00
2022-08-22T07:18:21.467Z,97569.00
2022-08-22T07:20:55.188Z,97581.00
2022-08-22T07:23:58.549Z,97574.00
2022-08-22T07:26:34.973Z,97568.00
2022-08-22T07:29:43.204Z,97567.00
2022-08-22T07:32:42.138Z,97570.00
2022-08-22T07:35:28.932Z,97566.00
2022-08-22T07:38:14.576Z,97570.00
2022-08-22T07:40:50.432Z,97564.00
2022-08-22T07:43:36.643Z,97565.00
2022-08-22T07:46:34.001Z,97567.00
2022-08-22T07:49:21.054Z,97572.00
2022-08-22T07:51:51.867Z,97567.00
2022-08-22T07:54:47.862Z,97573.00
2022-08-22T07:57:30.474Z,97575.00
2022-08-22T08:00:01.069Z,97565.00
2022-08-22T08:02:29.566Z,97565.00
2022-08-22T08:05:00.483Z,97557.00
2022-08-22T08:07:30.151Z,97561.00
2022-08-22T08:10:11.141Z,97562.00
2022-08-22T08:12:56.123Z,97567.00
2022-08-22T08:15:33.361Z,97567.00
2022-08-22T08:18:12.065Z,97567.00
2022-08-22T08:20:39.663Z,97563.00
2022-08-22T08:23:10.851Z,97565.00
2022-08-22T08:26:08.337Z,97560.00
2022-08-22T08:28:46.399Z,97559.00
2022-08-22T08:31:24.958Z,97553.00
2022-08-22T08:34:11.851Z,97553.00
2022-08-22T08:36:48.510Z,97556.00
2022-08-22T08:39:52.364Z,97555.00
2022-08-22T08:43:10.832Z,97551.00
2022-08-22T08:45:50.048Z,97558.00
2022-08-22T08:48:33.405Z,97563.00
2022-08-22T08:51:20.313Z,97557.00
2022-08-22T08:54:11.316Z,97553.00
2022-08-22T08:57:20.147Z,97551.00
2022-08-22T09:00:15.122Z,97567.00
2022-08-22T09:03:09.094Z,97561.00
2022-08-22T09:06:23.312Z,97557.00
2022-08-22T09:09:11.764Z,97556.00
2022-08-22T09:12:16.890Z,97559.00
2022-08-22T09:15:15.098Z,97557.00
2022-08-22T09:18:13.698Z,97550.00
2022-08-22T09:21:30.675Z,97556.00
2022-08-22T09:24:31.493Z,97541.00
2022-08-22T09:27:08.452Z,97550.00
2022-08-22T09:29:54.724Z,97547.00
2022-08-22T09:32:44.854Z,97547.00
2022-08-22T09:35:52.076Z,97540.00
2022-08-22T09:38:34.814Z,97554.00
2022-08-22T09:41:47.734Z,97547.00
2022-08-22T09:44:33.652Z,97546.00
2022-08-22T09:47:25.825Z,97549.00
2022-08-22T09:50:24.677Z,97550.00
2022-08-22T09:53:36.382Z,97548.00
2022-08-22T09:56:17.573Z,97547.00
2022-08-22T09:59:04.072Z,97537.00
2022-08-22T10:01:51.311Z,97549.00
2022-08-22T10:04:48.553Z,97540.00
2022-08-22T10:07:52.960Z,97544.00
2022-08-22T10:10:39.904Z,97549.00
2022-08-22T10:13:35.045Z,97543.00
2022-08-22T10:16:10.096Z,97544.00
2022-08-22T10:18:52.755Z,97541.00
2022-08-22T10:21:44.173Z,97539.00
2022-08-22T10:24:25.785Z,97543.00
2022-08-22T10:27:09.922Z,97542.00
2022-08-22T10:30:11.066Z,97538.00
2022-08-22T10:32:52.866Z,97545.00
2022-08-22T10:35:52.458Z,97541.00
2022-08-22T10:38:36.000Z,97538.00
2022-08-22T10:41:14.552Z,97546.00
2022-08-22T10:44:04.262Z,97541.00
2022-08-22T10:46:59.211Z,97540.00
2022-08-22T10:49:33.485Z,97540.00
2022-08-22T10:52:22.660Z,97532.00
2022-08-22T10:55:13.825Z,97533.00
2022-08-22T10:58:06.459Z,97540.00
2022-08-22T11:00:54.294Z,97536.00
2022-08-22T11:03:56.133Z,97534.00
2022-08-22T11:06:45.850Z,97535.00
2022-08-22T11:09:55.476Z,97548.00
2022-08-22T11:12:41.757Z,97540.00
2022-08-22T11:15:44.569Z,97536.00
2022-08-22T11:18:35.367Z,97535.00
2022-08-22T11:21:07.568Z,97538.00
2022-08-22T11:23:48.456Z,97543.00
2022-08-22T11:26:29.170Z,97540.00
2022-08-22T11:29:25.333Z,97548.00
2022-08-22T11:32:17.575Z,97547.00
2022-08-22T11:35:09.161Z,97537.00
2022-08-22T11:37:59.917Z,97537.00
2022-08-22T11:40:48.151Z,97541.00
2022-08-22T11:43:46.948Z,97538.00
2022-08-22T11:46:58.001Z,97544.00
2022-08-22T11:49:52.723Z,97549.00
2022-08-22T11:53:07.822Z,97542.00
2022-08-22T11:56:12.901Z,97546.00
2022-08-22T11:58:51.543Z,97553.00
2022-08-22T12:01:42.931Z,97552.00
2022-08-22T12:04:37.217Z,97554.00
2022-08-22T12:07:19.593Z,97566.00
2022-08-22T12:10:00.002Z,97568.00
2022-08-22T12:12:43.736Z,97569.00
2022-08-22T12:15:33.197Z,97566.00
2022-08-22T12:18:21.357Z,97560.00
2022-08-22T12:21:09.463Z,97563.00
2022-08-22T12:24:11.332Z,97567.00
2022-08-22T12:27:34.038Z,97563.00
2022-08-22T12:30:35.029Z,97563.00
2022-08-22T12:33:13.198Z,97569.00
2022-08-22T12:35:53.622Z,97562.00
2022-08-22T12:38:36.038Z,97563.00
2022-08-22T12:41:35.093Z,97563.00
2022-08-22T12:44:30.340Z,97554.00
2022-08-22T12:47:34.299Z,97555.00
2022-08-22T12:50:07.666Z,97556.00
2022-08-22T12:53:07.580Z,97556.00
2022-08-22T12:55:56.375Z,97556.00
2022-08-22T12:59:22.481Z,97559.00
2022-08-22T13:01:54.973Z,97546.00
2022-08-22T13:04:33.456Z,97546.00
2022-08-22T13:07:22.870Z,97545.00
2022-08-22T13:09:57.854Z,97547.00
2022-08-22T13:12:39.933Z,97546.00
2022-08-22T13:15:29.807Z,97548.00
2022-08-22T13:18:18.868Z,97546.00
2022-08-22T13:20:52.576Z,97543.00
2022-08-22T13:23:44.882Z,97540.00
2022-08-22T13:26:33.774Z,97548.00
2022-08-22T13:29:27.128Z,97539.00
2022-08-22T13:32:02.082Z,97538.00
2022-08-22T13:34:43.742Z,97540.00
2022-08-22T13:37:37.754Z,97536.00
2022-08-22T13:40:13.593Z,97546.00
2022-08-22T13:42:54.070Z,97533.00
2022-08-22T13:45:28.706Z,97541.00
2022-08-22T13:48:15.012Z,97535.00
2022-08-22T13:51:12.527Z,97535.00
2022-08-22T13:53:49.853Z,97536.00
2022-08-22T13:56:59.259Z,97538.00
2022-08-22T14:00:07.077Z,97533.00
2022-08-22T14:03:05.649Z,97532.00
2022-08-22T14:05:43.667Z,97534.00
2022-08-22T14:08:30.645Z,97536.00
2022-08-22T14:11:30.279Z,97531.00
2022-08-22T14:14:02.470Z,97524.00
2022-08-22T14:16:55.821Z,97521.00
2022-08-22T14:19:53.059Z,97521.00
2022-08-22T14:22:35.123Z,97522.00
2022-08-22T14:25:19.174Z,97523.00
2022-08-22T14:27:59.308Z,97527.00
2022-08-22T14:31:13.307Z,97523.00
2022-08-22T14:33:53.543Z,97522.00
2022-08-22T14:36:40.561Z,97520.00
2022-08-22T14:39:09.666Z,97526.00
2022-08-22T14:41:52.363Z,97524.00
2022-08-22T14:44:56.111Z,97526.00
2022-08-22T14:47:55.091Z,97524.00
2022-08-22T14:50:53.391Z,97527.00
2022-08-22T14:53:25.391Z,97529.00
2022-08-22T14:56:24.365Z,97527.00
2022-08-22T14:59:05.749Z,97533.00
2022-08-22T15:01:55.304Z,97528.00
2022-08-22T15:04:38.253Z,97532.00
2022-08-22T15:07:09.689Z,97532.00
2022-08-22T15:10:03.023Z,97533.00
2022-08-22T15:12:46.626Z,97532.00
2022-08-22T15:15:41.219Z,97528.00
2022-08-22T15:18:28.976Z,97527.00
2022-08-22T15:21:31.226Z,97533.00
2022-08-22T15:24:08.081Z,97531.00
2022-08-22T15:26:55.298Z,97533.00
2022-08-22T15:29:29.245Z,97538.00
2022-08-22T15:32:01.166Z,97530.00
2022-08-22T15:34:40.164Z,97536.00
2022-08-22T15:37:20.257Z,97533.00
2022-08-22T15:40:12.104Z,97534.00
2022-08-22T15:42:41.940Z,97531.00
2022-08-22T15:45:43.898Z,97529.00
2022-08-22T15:48:36.736Z,97534.00
2022-08-22T15:51:13.576Z,97538.00
2022-08-22T15:53:43.467Z,97528.00
2022-08-22T15:56:15.404Z,97534.00
2022-08-22T15:58:52.866Z,97528.00
2022-08-22T16:01:26.037Z,97528.00
2022-08-22T16:04:08.838Z,97532.00
2022-08-22T16:06:54.746Z,97533.00
2022-08-22T16:09:47.127Z,97542.00
2022-08-22T16:12:42.432Z,97535.00
2022-08-22T16:15:51.309Z,97535.00
2022-08-22T16:18:33.882Z,97543.00
2022-08-22T16:21:23.691Z,97543.00
2022-08-22T16:23:54.280Z,97547.00
2022-08-22T16:26:30.237Z,97557.00
2022-08-22T16:29:18.008Z,97545.00
2022-08-22T16:31:48.314Z,97549.00
2022-08-22T16:34:18.659Z,97552.00
2022-08-22T16:37:14.678Z,97561.00
2022-08-22T16:40:01.731Z,97564.00
2022-08-22T16:43:00.624Z,97565.00
2022-08-22T16:45:36.096Z,97571.00
2022-08-22T16:48:39.682Z,97575.00
2022-08-22T16:51:18.695Z,97577.00
2022-08-22T16:54:11.161Z,97579.00
2022-08-22T16:57:22.361Z,97582.00
2022-08-22T17:00:22.779Z,97575.00
2022-08-22T17:02:58.929Z,97580.00
2022-08-22T17:05:47.455Z,97579.00
2022-08-22T17:08:36.115Z,97572.00
2022-08-22T17:11:55.789Z,97586.00
2022-08-22T17:14:39.200Z,97593.00
2022-08-22T17:17:36.708Z,97593.00
2022-08-22T17:20:18.646Z,97586.00
2022-08-22T17:23:35.833Z,97585.00
2022-08-22T17:26:38.269Z,97589.00
2022-08-22T17:29:24.053Z,97590.00
2022-08-22T17:32:30.794Z,97597.00
2022-08-22T17:35:23.534Z,97591.00
2022-08-22T17:37:59.868Z,97593.00
2022-08-22T17:41:09.890Z,97600.00
2022-08-22T17:44:25.981Z,97602.00
2022-08-22T17:47:18.179Z,97597.00
2022-08-22T17:50:00.750Z,97601.00
2022-08-22T17:52:38.157Z,97602.00
2022-08-22T17:55:29.218Z,97599.00
2022-08-22T17:58:06.824Z,97603.00
2022-08-22T18:00:58.029Z,97606.00
2022-08-22T18:03:37.810Z,97606.00
2022-08-22T18:06:18.750Z,97606.00
2022-08-22T18:09:14.136Z,97604.00
2022-08-22T18:11:55.509Z,97604.00
2022-08-22T18:14:38.603Z,97606.00
2022-08-22T18:17:41.444Z,97608.00
2022-08-22T18:20:45.026Z,97611.00
2022-08-22T18:23:49.710Z,97612.00
2022-08-22T18:27:06.978Z,97618.00
2022-08-22T18:29:47.455Z,97612.00
2022-08-22T18:33:01.719Z,97616.00
2022-08-22T18:35:54.571Z,97620.00
2022-08-22T18:38:39.294Z,97618.00
2022-08-22T18:41:22.064Z,97627.00
2022-08-22T18:43:51.014Z,97628.00
2022-08-22T18:46:38.536Z,97633.00
2022-08-22T18:49:21.548Z,97624.00
2022-08-22T18:52:13.750Z,97631.00
2022-08-22T18:55:36.395Z,97630.00
2022-08-22T18:58:03.532Z,97632.00
2022-08-22T19:01:15.507Z,97633.00
2022-08-22T19:04:32.046Z,97634.00
2022-08-22T19:07:44.427Z,97634.00
2022-08-22T19:10:49.436Z,97636.00
2022-08-22T19:13:51.198Z,97638.00
2022-08-22T19:16:27.346Z,97642.00
2022-08-22T19:19:02.515Z,97641.00
2022-08-22T19:21:54.607Z,97636.00
2022-08-22T19:24:27.938Z,97631.00
2022-08-22T19:27:07.595Z,97633.00
2022-08-22T19:29:34.779Z,97623.00
2022-08-22T19:32:05.822Z,97625.00
2022-08-22T19:34:46.895Z,97629.00
2022-08-22T19:37:32.741Z,97626.00
2022-08-22T19:40:12.097Z,97629.00
2022-08-22T19:42:43.227Z,97632.00
2022-08-22T19:45:19.903Z,97630.00
2022-08-22T19:48:14.765Z,97638.00
2022-08-22T19:50:43.563Z,97637.00
2022-08-22T19:53:36.142Z,97636.00
2022-08-22T19:56:18.419Z,97640.00
2022-08-22T19:59:16.706Z,97632.00
2022-08-22T20:02:00.726Z,97629.00
2022-08-22T20:04:45.667Z,97633.00
2022-08-22T20:07:49.642Z,97634.00
2022-08-22T20:10:27.611Z,97639.00
2022-08-22T20:13:07.500Z,97639.00
2022-08-22T20:16:16.414Z,97644.00
2022-08-22T20:19:08.913Z,97645.00
2022-08-22T20:21:49.226Z,97649.00
2022-08-22T20:24:32.916Z,97645.00
2022-08-22T20:27:15.148Z,97643.00
2022-08-22T20:30:10.940Z,97641.00
2022-08-22T20:32:51.186Z,97638.00
2022-08-22T20:35:26.813Z,97641.00
2022-08-22T20:38:06.984Z,97642.00
2022-08-22T20:40:56.501Z,97640.00
2022-08-22T20:43:43.900Z,97636.00
2022-08-22T20:46:46.289Z,97638.00
2022-08-22T20:49:19.666Z,97637.00
2022-08-22T20:51:54.974Z,97631.00
2022-08-22T20:54:28.857Z,97625.00
2022-08-22T20:57:20.372Z,97638.00
2022-08-22T21:00:12.547Z,97630.00
2022-08-22T21:02:45.463Z,97625.00
2022-08-22T21:05:13.498Z,97620.00
2022-08-22T21:07:45.302Z,97629.00
2022-08-22T21:10:45.486Z,97620.00
2022-08-22T21:13:29.835Z,97621.00
2022-08-22T21:16:12.591Z,97622.00
2022-08-22T21:18:45.865Z,97614.00
2022-08-22T21:21:25.352Z,97606.00
2022-08-22T21:24:00.494Z,97617.00
2022-08-22T21:26:53.449Z,97621.00
2022-08-22T21:29:23.476Z,97615.00
2022-08-22T21:32:04.700Z,97627.00
2022-08-22T21:34:44.353Z,97627.00
2022-08-22T21:37:26.941Z,97627.00
2022-08-22T21:39:59.670Z,97623.00
2022-08-22T21:42:39.919Z,97617.00
2022-08-22T21:45:29.324Z,97618.00
2022-08-22T21:47:56.864Z,97619.00
2022-08-22T21:50:24.239Z,97626.00
2022-08-22T21:53:10.074Z,97618.00
2022-08-22T21:55:44.599Z,97612.00
2022-08-22T21:58:36.537Z,97620.00
2022-08-22T22:01:33.777Z,97615.00
2022-08-22T22:04:01.012Z,97618.00
2022-08-22T22:06:28.130Z,97606.00
2022-08-22T22:08:55.568Z,97606.00
2022-08-22T22:11:22.775Z,97607.00
2022-08-22T22:13:49.989Z,97604.00
2022-08-22T22:16:27.156Z,97609.00
2022-08-22T22:18:54.819Z,97608.00
2022-08-22T22:21:22.315Z,97606.00
2022-08-22T22:23:50.767Z,97600.00
2022-08-22T22:26:18.064Z,97604.00
2022-08-22T22:28:48.282Z,97596.00
2022-08-22T22:31:18.355Z,97605.00
2022-08-22T22:33:46.204Z,97606.00
2022-08-22T22:36:22.624Z,97603.00
2022-08-22T22:38:51.705Z,97605.00
2022-08-22T22:41:20.436Z,97602.00
2022-08-22T22:43:47.742Z,97599.00
2022-08-22T22:46:14.984Z,97598.00
2022-08-22T22:48:42.141Z,97593.00
2022-08-22T22:51:12.449Z,97592.00
2022-08-22T22:53:42.922Z,97591.00
2022-08-22T22:56:17.832Z,97601.00
2022-08-22T22:58:50.191Z,97604.00
2022-08-22T23:01:27.128Z,97604.00
2022-08-22T23:04:03.239Z,97607.00
2022-08-22T23:06:33.421Z,97603.00
2022-08-22T23:09:00.727Z,97607.00
2022-08-22T23:11:30.269Z,97601.00
2022-08-22T23:13:57.717Z,97609.00
2022-08-22T23:16:28.717Z,97612.00
2022-08-22T23:18:56.473Z,97608.00
2022-08-22T23:21:28.303Z,97608.00
2022-08-22T23:23:58.566Z,97603.00
2022-08-22T23:26:26.425Z,97607.00
2022-08-22T23:28:53.785Z,97608.00
2022-08-22T23:31:43.318Z,97605.00
2022-08-22T23:34:15.190Z,97604.00
2022-08-22T23:36:46.370Z,97599.00
2022-08-22T23:39:15.177Z,97607.00
2022-08-22T23:41:43.622Z,97598.00
2022-08-22T23:44:14.239Z,97597.00
2022-08-22T23:46:43.393Z,97596.00
2022-08-22T23:49:11.685Z,97607.00
2022-08-22T23:51:39.986Z,97603.00
2022-08-22T23:54:07.643Z,97597.00
2022-08-22T23:56:37.598Z,97601.00
2022-08-22T23:59:13.161Z,97594.00
